createdAt,value
2018-02-24T00:00:10.872Z,10.29
2018-02-24T00:02:38.402Z,10.28
2018-02-24T00:05:06.054Z,10.33
2018-02-24T00:07:34.514Z,10.34
2018-02-24T00:10:02.104Z,10.36
2018-02-24T00:12:29.688Z,10.35
2018-02-24T00:14:57.340Z,10.39
2018-02-24T00:17:24.883Z,10.41
2018-02-24T00:19:52.422Z,10.43
2018-02-24T00:22:19.993Z,10.46
2018-02-24T00:24:47.563Z,10.47
2018-02-24T00:27:15.138Z,10.49
2018-02-24T00:29:42.788Z,10.48
2018-02-24T00:32:10.380Z,10.49
2018-02-24T00:34:37.983Z,10.51
2018-02-24T00:37:05.532Z,10.53
2018-02-24T00:39:33.102Z,10.55
2018-02-24T00:42:00.652Z,10.59
2018-02-24T00:44:28.257Z,10.58
2018-02-24T00:46:55.790Z,10.58
2018-02-24T00:49:23.354Z,10.55
2018-02-24T00:51:51.016Z,10.57
2018-02-24T00:54:18.644Z,10.50
2018-02-24T00:56:46.200Z,10.46
2018-02-24T00:59:13.868Z,10.30
2018-02-24T01:01:41.499Z,10.26
2018-02-24T01:04:09.174Z,9.97
2018-02-24T01:06:36.739Z,10.00
2018-02-24T01:09:04.312Z,10.01
2018-02-24T01:11:31.911Z,10.04
2018-02-24T01:13:59.442Z,10.10
2018-02-24T01:16:27.028Z,10.19
2018-02-24T01:18:54.615Z,10.20
2018-02-24T01:21:22.263Z,10.24
2018-02-24T01:23:49.859Z,10.27
2018-02-24T01:26:17.447Z,10.27
2018-02-24T01:28:45.028Z,10.20
2018-02-24T01:31:12.615Z,10.21
2018-02-24T01:33:40.151Z,10.25
2018-02-24T01:36:07.726Z,10.28
2018-02-24T01:38:35.265Z,10.32
2018-02-24T01:41:02.908Z,10.35
2018-02-24T01:43:30.448Z,10.34
2018-02-24T01:45:59.036Z,10.35
2018-02-24T01:48:26.618Z,10.37
2018-02-24T01:50:55.140Z,10.36
2018-02-24T01:53:22.670Z,10.38
2018-02-24T01:55:50.271Z,10.32
2018-02-24T01:58:17.819Z,10.28
2018-02-24T02:00:45.484Z,10.29
2018-02-24T02:03:13.061Z,10.18
2018-02-24T02:05:40.660Z,9.98
2018-02-24T02:08:08.197Z,9.95
2018-02-24T02:10:36.731Z,9.96
2018-02-24T02:13:04.280Z,10.05
2018-02-24T02:15:31.825Z,10.10
2018-02-24T02:18:00.394Z,10.12
2018-02-24T02:20:27.972Z,10.13
2018-02-24T02:22:55.615Z,10.11
2018-02-24T02:25:23.166Z,10.09
2018-02-24T02:27:50.738Z,10.12
2018-02-24T02:30:18.345Z,10.17
2018-02-24T02:32:45.887Z,10.20
2018-02-24T02:35:13.426Z,10.22
2018-02-24T02:37:40.999Z,10.24
2018-02-24T02:40:08.543Z,10.23
2018-02-24T02:42:36.122Z,10.25
2018-02-24T02:45:03.672Z,10.24
2018-02-24T02:47:31.272Z,10.19
2018-02-24T02:49:58.863Z,10.20
2018-02-24T02:52:26.408Z,10.18
2018-02-24T02:54:53.986Z,10.05
2018-02-24T02:57:21.578Z,10.06
2018-02-24T02:59:49.131Z,10.06
2018-02-24T03:02:16.737Z,10.02
2018-02-24T03:04:44.283Z,10.01
2018-02-24T03:07:11.952Z,10.07
2018-02-24T03:09:39.486Z,9.89
2018-02-24T03:12:07.084Z,9.57
2018-02-24T03:14:34.696Z,9.60
2018-02-24T03:17:02.274Z,9.60
2018-02-24T03:19:29.851Z,9.59
2018-02-24T03:21:57.448Z,9.66
2018-02-24T03:24:25.095Z,9.67
2018-02-24T03:26:52.693Z,9.68
2018-02-24T03:29:20.275Z,9.75
2018-02-24T03:31:47.820Z,9.79
2018-02-24T03:34:15.362Z,9.24
2018-02-24T03:36:42.932Z,8.90
2018-02-24T03:39:10.473Z,9.00
2018-02-24T03:41:38.156Z,8.89
2018-02-24T03:44:05.693Z,8.77
2018-02-24T03:46:33.247Z,8.86
2018-02-24T03:49:00.887Z,8.72
2018-02-24T03:51:28.439Z,8.80
2018-02-24T03:53:56.040Z,8.88
2018-02-24T03:56:24.505Z,8.79
2018-02-24T03:58:52.088Z,8.69
2018-02-24T04:01:19.700Z,8.80
2018-02-24T04:03:47.288Z,8.97
2018-02-24T04:06:14.852Z,9.06
2018-02-24T04:08:42.391Z,9.12
2018-02-24T04:11:09.975Z,9.16
2018-02-24T04:13:37.551Z,9.24
2018-02-24T04:16:05.132Z,9.35
2018-02-24T04:18:32.679Z,9.17
2018-02-24T04:21:00.258Z,9.26
2018-02-24T04:23:28.753Z,9.33
2018-02-24T04:25:56.287Z,9.38
2018-02-24T04:28:23.864Z,9.34
2018-02-24T04:30:52.374Z,9.29
2018-02-24T04:33:19.910Z,9.33
2018-02-24T04:35:47.451Z,9.33
2018-02-24T04:38:15.035Z,9.35
2018-02-24T04:40:42.591Z,9.23
2018-02-24T04:43:10.243Z,8.88
2018-02-24T04:45:37.814Z,8.87
2018-02-24T04:48:05.359Z,9.04
2018-02-24T04:50:32.929Z,9.13
2018-02-24T04:53:00.493Z,9.14
2018-02-24T04:55:28.035Z,9.17
2018-02-24T04:57:55.622Z,9.17
2018-02-24T05:00:23.159Z,9.20
2018-02-24T05:02:50.689Z,9.28
2018-02-24T05:05:18.332Z,9.39
2018-02-24T05:07:45.868Z,9.40
2018-02-24T05:10:13.459Z,9.37
2018-02-24T05:12:41.044Z,9.39
2018-02-24T05:15:08.627Z,9.23
2018-02-24T05:17:36.159Z,9.23
2018-02-24T05:20:03.804Z,9.03
2018-02-24T05:22:31.448Z,9.16
2018-02-24T05:24:58.978Z,9.15
2018-02-24T05:27:26.561Z,9.19
2018-02-24T05:29:54.090Z,9.21
2018-02-24T05:32:21.635Z,9.24
2018-02-24T05:34:49.241Z,9.33
2018-02-24T05:37:16.784Z,9.38
2018-02-24T05:39:44.310Z,9.37
2018-02-24T05:42:11.891Z,9.20
2018-02-24T05:44:39.432Z,9.27
2018-02-24T05:47:07.005Z,9.36
2018-02-24T05:49:34.636Z,9.41
2018-02-24T05:52:02.180Z,9.48
2018-02-24T05:54:29.759Z,9.53
2018-02-24T05:56:57.337Z,9.53
2018-02-24T05:59:24.874Z,9.61
2018-02-24T06:01:52.484Z,9.67
2018-02-24T06:04:20.046Z,9.72
2018-02-24T06:06:47.592Z,9.60
2018-02-24T06:09:15.185Z,9.62
2018-02-24T06:11:42.717Z,9.66
2018-02-24T06:14:10.251Z,9.70
2018-02-24T06:16:38.679Z,9.70
2018-02-24T06:19:06.245Z,9.77
2018-02-24T06:21:33.872Z,9.76
2018-02-24T06:24:01.444Z,9.59
2018-02-24T06:26:29.121Z,9.59
2018-02-24T06:28:56.655Z,9.69
2018-02-24T06:31:24.200Z,9.76
2018-02-24T06:33:51.779Z,9.81
2018-02-24T06:36:19.336Z,9.83
2018-02-24T06:38:46.935Z,9.83
2018-02-24T06:41:14.557Z,9.81
2018-02-24T06:43:42.134Z,9.83
2018-02-24T06:46:09.667Z,9.88
2018-02-24T06:48:37.219Z,9.83
2018-02-24T06:51:04.794Z,9.82
2018-02-24T06:53:32.331Z,9.88
2018-02-24T06:56:00.701Z,9.92
2018-02-24T06:58:28.243Z,9.97
2018-02-24T07:00:55.787Z,10.00
2018-02-24T07:03:23.362Z,10.00
2018-02-24T07:05:50.912Z,10.03
2018-02-24T07:08:18.554Z,10.03
2018-02-24T07:10:46.152Z,9.95
2018-02-24T07:13:13.750Z,9.79
2018-02-24T07:15:41.345Z,9.78
2018-02-24T07:18:08.924Z,9.88
2018-02-24T07:20:37.319Z,9.91
2018-02-24T07:23:04.864Z,9.90
2018-02-24T07:25:32.443Z,9.95
2018-02-24T07:28:00.105Z,9.95
2018-02-24T07:30:27.673Z,9.89
2018-02-24T07:32:55.351Z,9.88
2018-02-24T07:35:23.137Z,9.93
2018-02-24T07:37:50.681Z,9.98
2018-02-24T07:40:18.272Z,10.06
2018-02-24T07:42:45.868Z,10.10
2018-02-24T07:45:13.428Z,10.13
2018-02-24T07:47:40.986Z,10.16
2018-02-24T07:50:08.562Z,10.22
2018-02-24T07:52:36.112Z,10.23
2018-02-24T07:55:03.688Z,10.23
2018-02-24T07:57:31.235Z,10.20
2018-02-24T07:59:58.819Z,10.17
2018-02-24T08:02:26.467Z,10.00
2018-02-24T08:04:54.087Z,10.05
2018-02-24T08:07:21.735Z,10.04
2018-02-24T08:09:49.272Z,10.07
2018-02-24T08:12:16.842Z,9.99
2018-02-24T08:14:44.415Z,9.97
2018-02-24T08:17:11.963Z,10.02
2018-02-24T08:19:39.547Z,10.00
2018-02-24T08:22:07.148Z,9.92
2018-02-24T08:24:34.722Z,9.94
2018-02-24T08:27:02.260Z,9.99
2018-02-24T08:29:29.916Z,10.04
2018-02-24T08:31:57.454Z,10.08
2018-02-24T08:34:25.059Z,10.09
2018-02-24T08:36:52.648Z,10.11
2018-02-24T08:39:20.215Z,10.17
2018-02-24T08:41:47.804Z,10.21
2018-02-24T08:44:15.392Z,10.23
2018-02-24T08:46:42.934Z,10.25
2018-02-24T08:49:10.480Z,10.22
2018-02-24T08:51:38.062Z,10.12
2018-02-24T08:54:05.653Z,10.12
2018-02-24T08:56:33.191Z,10.06
2018-02-24T08:59:00.782Z,10.08
2018-02-24T09:01:28.436Z,10.16
2018-02-24T09:03:55.980Z,10.20
2018-02-24T09:06:23.575Z,10.17
2018-02-24T09:08:51.108Z,10.17
2018-02-24T09:11:18.738Z,10.19
2018-02-24T09:13:46.284Z,10.20
2018-02-24T09:16:13.880Z,10.25
2018-02-24T09:18:41.429Z,10.27
2018-02-24T09:21:09.116Z,10.32
2018-02-24T09:23:36.655Z,10.35
2018-02-24T09:26:04.309Z,10.17
2018-02-24T09:28:31.862Z,10.14
2018-02-24T09:30:59.445Z,10.15
2018-02-24T09:33:27.059Z,10.20
2018-02-24T09:35:54.658Z,10.05
2018-02-24T09:38:23.173Z,10.04
2018-02-24T09:40:51.615Z,10.09
2018-02-24T09:43:19.208Z,10.03
2018-02-24T09:45:46.751Z,10.10
2018-02-24T09:48:14.353Z,10.18
2018-02-24T09:50:41.937Z,10.19
2018-02-24T09:53:09.486Z,10.24
2018-02-24T09:55:37.032Z,10.30
2018-02-24T09:58:04.628Z,10.29
2018-02-24T10:00:32.216Z,10.33
2018-02-24T10:02:59.758Z,10.37
2018-02-24T10:05:27.327Z,10.34
2018-02-24T10:07:55.597Z,10.37
2018-02-24T10:10:23.184Z,10.40
2018-02-24T10:12:50.832Z,10.44
2018-02-24T10:15:19.311Z,10.42
2018-02-24T10:17:46.882Z,10.44
2018-02-24T10:20:14.426Z,10.49
2018-02-24T10:22:42.682Z,10.46
2018-02-24T10:25:10.323Z,10.42
2018-02-24T10:27:37.931Z,10.40
2018-02-24T10:30:05.538Z,10.43
2018-02-24T10:32:33.078Z,10.44
2018-02-24T10:35:00.676Z,10.47
2018-02-24T10:37:28.284Z,10.48
2018-02-24T10:39:55.814Z,10.48
2018-02-24T10:42:23.398Z,10.41
2018-02-24T10:44:50.950Z,10.36
2018-02-24T10:47:19.299Z,10.19
2018-02-24T10:49:46.840Z,9.90
2018-02-24T10:52:14.429Z,9.90
2018-02-24T10:54:42.864Z,9.87
2018-02-24T10:57:10.575Z,9.53
2018-02-24T10:59:38.113Z,9.57
2018-02-24T11:02:05.695Z,9.43
2018-02-24T11:04:33.230Z,9.33
2018-02-24T11:07:00.816Z,9.26
2018-02-24T11:09:28.359Z,9.37
2018-02-24T11:11:56.044Z,9.49
2018-02-24T11:14:24.427Z,9.63
2018-02-24T11:16:51.962Z,9.73
2018-02-24T11:19:19.557Z,9.79
2018-02-24T11:21:47.101Z,9.90
2018-02-24T11:24:14.709Z,10.01
2018-02-24T11:26:43.060Z,10.03
2018-02-24T11:29:12.090Z,10.01
2018-02-24T11:31:39.675Z,10.07
2018-02-24T11:34:08.202Z,10.12
2018-02-24T11:36:35.790Z,10.18
2018-02-24T11:39:03.624Z,10.24
2018-02-24T11:41:31.195Z,10.27
2018-02-24T11:43:58.817Z,10.34
2018-02-24T11:46:26.395Z,10.25
2018-02-24T11:48:54.041Z,10.31
2018-02-24T11:51:21.628Z,10.35
2018-02-24T11:53:49.216Z,10.36
2018-02-24T11:56:16.755Z,10.38
2018-02-24T11:58:45.090Z,10.46
2018-02-24T12:01:12.671Z,10.47
2018-02-24T12:03:40.291Z,10.35
2018-02-24T12:06:07.843Z,10.38
2018-02-24T12:08:35.436Z,10.53
2018-02-24T12:11:02.983Z,10.54
2018-02-24T12:13:30.572Z,10.54
2018-02-24T12:15:58.111Z,10.48
2018-02-24T12:18:25.692Z,10.42
2018-02-24T12:20:53.225Z,10.30
2018-02-24T12:23:20.816Z,9.69
2018-02-24T12:25:48.411Z,9.74
2018-02-24T12:28:15.952Z,9.83
2018-02-24T12:30:43.545Z,9.72
2018-02-24T12:33:12.124Z,9.81
2018-02-24T12:35:39.693Z,9.76
2018-02-24T12:38:07.307Z,9.10
2018-02-24T12:40:34.910Z,8.77
2018-02-24T12:43:02.482Z,8.68
2018-02-24T12:45:30.127Z,8.25
2018-02-24T12:47:57.673Z,7.96
2018-02-24T12:50:25.320Z,8.27
2018-02-24T12:52:53.041Z,8.63
2018-02-24T12:55:21.764Z,8.81
2018-02-24T12:57:49.427Z,8.75
2018-02-24T13:00:16.998Z,8.96
2018-02-24T13:02:44.613Z,8.87
2018-02-24T13:05:12.163Z,8.75
2018-02-24T13:07:40.274Z,8.41
2018-02-24T13:10:07.818Z,8.11
2018-02-24T13:12:35.393Z,7.88
2018-02-24T13:15:03.796Z,7.72
2018-02-24T13:17:31.370Z,7.68
2018-02-24T13:19:58.913Z,7.52
2018-02-24T13:22:26.482Z,7.48
2018-02-24T13:24:54.994Z,7.57
2018-02-24T13:27:22.652Z,7.63
2018-02-24T13:29:50.195Z,7.70
2018-02-24T13:32:18.505Z,7.71
2018-02-24T13:34:46.122Z,7.68
2018-02-24T13:37:13.687Z,7.44
2018-02-24T13:39:41.236Z,7.42
2018-02-24T13:42:08.889Z,7.45
2018-02-24T13:44:36.565Z,7.47
2018-02-24T13:47:04.196Z,7.57
2018-02-24T13:49:31.725Z,7.46
2018-02-24T13:51:59.278Z,7.44
2018-02-24T13:54:26.872Z,7.39
2018-02-24T13:56:54.405Z,7.40
2018-02-24T13:59:21.948Z,7.32
2018-02-24T14:01:49.527Z,7.30
2018-02-24T14:04:17.140Z,7.29
2018-02-24T14:06:44.699Z,7.27
2018-02-24T14:09:12.234Z,7.29
2018-02-24T14:11:39.799Z,7.30
2018-02-24T14:14:07.357Z,7.37
2018-02-24T14:16:34.948Z,7.38
2018-02-24T14:19:03.283Z,7.36
2018-02-24T14:21:30.866Z,7.34
2018-02-24T14:23:58.674Z,7.28
2018-02-24T14:26:27.154Z,7.33
2018-02-24T14:28:55.498Z,7.35
2018-02-24T14:31:23.927Z,7.37
2018-02-24T14:33:52.908Z,7.40
2018-02-24T14:36:21.464Z,7.45
2018-02-24T14:38:49.093Z,7.51
2018-02-24T14:41:16.770Z,7.48
2018-02-24T14:43:44.367Z,7.43
2018-02-24T14:46:11.951Z,7.36
2018-02-24T14:48:39.489Z,7.26
2018-02-24T14:51:07.156Z,7.29
2018-02-24T14:53:34.700Z,7.33
2018-02-24T14:56:02.244Z,7.41
2018-02-24T14:58:29.830Z,7.39
2018-02-24T15:00:57.476Z,7.36
2018-02-24T15:03:25.060Z,7.38
2018-02-24T15:05:52.775Z,7.36
2018-02-24T15:08:21.108Z,7.27
2018-02-24T15:10:52.643Z,7.27
2018-02-24T15:13:20.243Z,7.23
2018-02-24T15:15:47.779Z,7.17
2018-02-24T15:18:16.874Z,7.13
2018-02-24T15:20:44.435Z,7.08
2018-02-24T15:23:12.097Z,7.07
2018-02-24T15:25:41.203Z,7.10
2018-02-24T15:28:09.558Z,7.17
2018-02-24T15:30:37.237Z,7.16
2018-02-24T15:33:04.889Z,7.25
2018-02-24T15:35:34.305Z,7.18
2018-02-24T15:38:02.766Z,7.38
2018-02-24T15:40:30.364Z,7.67
2018-02-24T15:42:57.940Z,7.93
2018-02-24T15:45:25.592Z,7.96
2018-02-24T15:47:53.352Z,7.75
2018-02-24T15:50:21.168Z,7.60
2018-02-24T15:52:48.855Z,7.62
2018-02-24T15:55:16.511Z,7.84
2018-02-24T15:57:46.081Z,7.62
2018-02-24T16:00:14.244Z,7.57
2018-02-24T16:02:41.839Z,7.65
2018-02-24T16:05:09.415Z,7.69
2018-02-24T16:07:37.084Z,7.87
2018-02-24T16:10:04.676Z,7.94
2018-02-24T16:12:32.489Z,7.87
2018-02-24T16:15:00.102Z,7.66
2018-02-24T16:17:27.813Z,7.56
2018-02-24T16:19:56.188Z,7.63
2018-02-24T16:22:23.808Z,7.95
2018-02-24T16:24:51.406Z,7.90
2018-02-24T16:27:18.952Z,7.75
2018-02-24T16:29:47.531Z,7.66
2018-02-24T16:32:15.166Z,7.85
2018-02-24T16:34:42.742Z,7.95
2018-02-24T16:37:10.336Z,7.85
2018-02-24T16:39:37.967Z,7.58
2018-02-24T16:42:05.516Z,7.62
2018-02-24T16:44:33.104Z,7.60
2018-02-24T16:47:00.650Z,7.79
2018-02-24T16:49:29.385Z,7.87
2018-02-24T16:51:57.008Z,7.81
2018-02-24T16:54:24.567Z,7.88
2018-02-24T16:56:52.160Z,7.80
2018-02-24T16:59:19.806Z,7.93
2018-02-24T17:01:48.390Z,8.05
2018-02-24T17:04:15.926Z,8.18
2018-02-24T17:06:44.390Z,8.04
2018-02-24T17:09:12.111Z,8.14
2018-02-24T17:11:40.700Z,8.36
2018-02-24T17:14:08.488Z,8.47
2018-02-24T17:16:36.207Z,8.51
2018-02-24T17:19:03.799Z,8.59
2018-02-24T17:21:31.382Z,8.71
2018-02-24T17:23:59.932Z,8.85
2018-02-24T17:26:28.303Z,8.85
2018-02-24T17:28:57.029Z,8.85
2018-02-24T17:31:24.635Z,8.80
2018-02-24T17:33:53.114Z,8.85
2018-02-24T17:36:20.764Z,8.83
2018-02-24T17:38:48.403Z,8.84
2018-02-24T17:41:17.795Z,8.78
2018-02-24T17:43:45.980Z,8.65
2018-02-24T17:46:13.570Z,8.62
2018-02-24T17:48:41.316Z,8.70
2018-02-24T17:51:08.894Z,8.67
2018-02-24T17:53:36.677Z,8.75
2018-02-24T17:56:04.228Z,8.66
2018-02-24T17:58:31.822Z,8.61
2018-02-24T18:00:59.380Z,8.56
2018-02-24T18:03:26.999Z,8.46
2018-02-24T18:05:54.652Z,8.43
2018-02-24T18:08:22.216Z,8.42
2018-02-24T18:10:50.497Z,8.40
2018-02-24T18:13:18.490Z,8.59
2018-02-24T18:15:46.254Z,8.76
2018-02-24T18:18:14.424Z,8.85
2018-02-24T18:20:42.115Z,8.96
2018-02-24T18:23:09.792Z,9.09
2018-02-24T18:25:37.960Z,9.17
2018-02-24T18:28:05.612Z,9.27
2018-02-24T18:30:34.108Z,9.38
2018-02-24T18:33:01.706Z,9.44
2018-02-24T18:35:29.294Z,9.50
2018-02-24T18:37:57.260Z,9.56
2018-02-24T18:40:24.818Z,9.64
2018-02-24T18:42:52.453Z,9.70
2018-02-24T18:45:20.061Z,9.57
2018-02-24T18:47:47.903Z,9.60
2018-02-24T18:50:16.525Z,9.65
2018-02-24T18:52:44.223Z,9.57
2018-02-24T18:55:11.845Z,9.53
2018-02-24T18:57:40.391Z,9.47
2018-02-24T19:00:08.011Z,9.36
2018-02-24T19:02:37.021Z,9.38
2018-02-24T19:05:04.581Z,9.41
2018-02-24T19:07:32.146Z,9.46
2018-02-24T19:09:59.722Z,9.54
2018-02-24T19:12:27.268Z,9.62
2018-02-24T19:14:54.872Z,9.67
2018-02-24T19:17:22.445Z,9.70
2018-02-24T19:19:50.035Z,9.74
2018-02-24T19:22:17.638Z,9.75
2018-02-24T19:24:45.312Z,9.78
2018-02-24T19:27:12.978Z,9.76
2018-02-24T19:29:40.749Z,9.66
2018-02-24T19:32:08.288Z,9.62
2018-02-24T19:34:35.899Z,9.57
2018-02-24T19:37:03.532Z,9.48
2018-02-24T19:39:31.375Z,9.50
2018-02-24T19:41:59.057Z,9.24
2018-02-24T19:44:26.758Z,9.32
2018-02-24T19:46:54.319Z,9.38
2018-02-24T19:49:21.866Z,9.48
2018-02-24T19:51:51.915Z,9.49
2018-02-24T19:54:19.513Z,9.44
2018-02-24T19:56:48.048Z,9.41
2018-02-24T19:59:15.755Z,9.44
2018-02-24T20:01:43.286Z,9.47
2018-02-24T20:04:11.063Z,9.50
2018-02-24T20:06:38.598Z,9.49
2018-02-24T20:09:06.257Z,9.52
2018-02-24T20:11:33.910Z,9.52
2018-02-24T20:14:01.589Z,9.46
2018-02-24T20:16:29.304Z,9.42
2018-02-24T20:18:57.107Z,9.39
2018-02-24T20:21:24.768Z,9.43
2018-02-24T20:23:52.380Z,9.33
2018-02-24T20:26:19.924Z,9.03
2018-02-24T20:28:47.503Z,8.68
2018-02-24T20:31:15.211Z,8.78
2018-02-24T20:33:42.819Z,8.70
2018-02-24T20:36:10.420Z,8.72
2018-02-24T20:38:38.134Z,8.76
2018-02-24T20:41:05.791Z,8.63
2018-02-24T20:43:33.510Z,8.72
2018-02-24T20:46:01.331Z,8.79
2018-02-24T20:48:28.871Z,8.74
2018-02-24T20:50:56.852Z,8.54
2018-02-24T20:53:24.553Z,8.49
2018-02-24T20:55:52.636Z,8.65
2018-02-24T20:58:22.720Z,8.35
2018-02-24T21:00:51.139Z,8.29
2018-02-24T21:03:20.533Z,8.34
2018-02-24T21:05:53.010Z,8.44
2018-02-24T21:08:20.543Z,8.46
2018-02-24T21:10:48.491Z,8.57
2018-02-24T21:13:16.041Z,8.41
2018-02-24T21:15:43.575Z,8.57
2018-02-24T21:18:11.159Z,8.56
2018-02-24T21:20:39.499Z,8.40
2018-02-24T21:23:07.144Z,8.44
2018-02-24T21:25:34.698Z,7.91
2018-02-24T21:28:03.207Z,7.68
2018-02-24T21:30:30.742Z,7.44
2018-02-24T21:32:58.323Z,7.35
2018-02-24T21:35:25.927Z,7.15
2018-02-24T21:37:53.830Z,7.28
2018-02-24T21:40:21.444Z,7.34
2018-02-24T21:42:49.041Z,7.56
2018-02-24T21:45:17.513Z,7.80
2018-02-24T21:47:45.091Z,8.03
2018-02-24T21:50:12.676Z,8.21
2018-02-24T21:52:40.263Z,8.34
2018-02-24T21:55:07.808Z,8.44
2018-02-24T21:57:35.375Z,8.59
2018-02-24T22:00:03.051Z,8.62
2018-02-24T22:02:30.580Z,8.64
2018-02-24T22:04:58.965Z,8.68
2018-02-24T22:07:27.354Z,8.59
2018-02-24T22:09:55.844Z,8.68
2018-02-24T22:12:23.394Z,8.69
2018-02-24T22:14:50.989Z,8.72
2018-02-24T22:17:18.526Z,8.67
2018-02-24T22:19:46.175Z,8.57
2018-02-24T22:22:13.741Z,8.63
2018-02-24T22:24:41.339Z,8.68
2018-02-24T22:27:08.980Z,8.65
2018-02-24T22:29:36.584Z,8.54
2018-02-24T22:32:04.171Z,8.34
2018-02-24T22:34:31.715Z,8.33
2018-02-24T22:36:59.310Z,7.76
2018-02-24T22:39:26.908Z,7.99
2018-02-24T22:41:54.548Z,8.09
2018-02-24T22:44:22.099Z,8.21
2018-02-24T22:46:49.688Z,8.29
2018-02-24T22:49:17.248Z,8.29
2018-02-24T22:51:44.782Z,8.37
2018-02-24T22:54:12.377Z,8.44
2018-02-24T22:56:39.972Z,8.29
2018-02-24T22:59:07.564Z,7.94
2018-02-24T23:01:35.287Z,7.73
2018-02-24T23:04:02.819Z,7.88
2018-02-24T23:06:30.370Z,8.06
2018-02-24T23:08:58.336Z,8.17
2018-02-24T23:11:25.876Z,8.28
2018-02-24T23:13:53.470Z,8.26
2018-02-24T23:16:21.460Z,8.24
2018-02-24T23:18:49.044Z,8.10
2018-02-24T23:21:16.891Z,8.03
2018-02-24T23:23:44.533Z,8.05
2018-02-24T23:26:12.105Z,8.20
2018-02-24T23:28:39.639Z,7.82
2018-02-24T23:31:07.203Z,7.51
2018-02-24T23:33:34.782Z,7.37
2018-02-24T23:36:02.343Z,7.23
2018-02-24T23:38:29.880Z,7.40
2018-02-24T23:40:57.487Z,7.40
2018-02-24T23:43:25.020Z,7.63
2018-02-24T23:45:52.593Z,7.69
2018-02-24T23:48:20.164Z,7.64
2018-02-24T23:50:47.781Z,7.67
2018-02-24T23:53:15.336Z,7.63
2018-02-24T23:55:42.928Z,7.64
2018-02-24T23:58:10.524Z,7.71
